Time;durP1;ratioP1;P1;durP2;ratioP2;P2;SDS_P1;SDS_P2;PMS_P1;PMS_P2;Temp;Humidity;BMP_temperature;BMP_pressure;BME280_temperature;BME280_humidity;BME280_pressure;Samples;Min_cycle;Max_cycle;Signal;HPM_P1;HPM_P2
2023/10/13 07:10:30;;;;;;;5.25;3.50;;;;;;;;;;10377203;28;20024;-86
2023/10/13 07:16:35;;;;;;;8.60;3.65;;;;;;;;;;10297686;28;20519;-85
2023/10/13 07:21:46;;;;;;;5.75;2.95;;;;;;;;;;10261934;28;20062;-84
2023/10/13 07:26:57;;;;;;;7.07;3.65;;;;;;;;;;10284418;28;20560;-83
2023/10/13 07:32:03;;;;;;;9.55;3.83;;;;;;;;;;10436664;28;20048;-85
2023/10/13 07:37:19;;;;;;;7.68;3.72;;;;;;;;;;10511628;28;20060;-85
2023/10/13 07:42:21;;;;;;;7.13;3.40;;;;;;;;;;10481271;28;20032;-84
2023/10/13 07:47:24;;;;;;;7.78;3.85;;;;;;;;;;10495752;28;20036;-84
2023/10/13 07:52:36;;;;;;;7.38;3.40;;;;;;;;;;10496906;28;20025;-85
2023/10/13 07:57:56;;;;;;;7.75;3.58;;;;;;;;;;10497856;28;20040;-84
2023/10/13 08:08:17;;;;;;;10.67;3.83;;;;;;;;;;10517208;28;20470;-84
2023/10/13 08:13:20;;;;;;;8.48;4.97;;;;;;;;;;10494944;28;20036;-84
2023/10/13 08:18:33;;;;;;;8.70;4.88;;;;;;;;;;10510867;28;20107;-83
2023/10/13 08:24:25;;;;;;;9.32;4.45;;;;;;;;;;10509793;28;20091;-84
2023/10/13 08:34:38;;;;;;;8.82;4.88;;;;;;;;;;10521354;28;20086;-84
2023/10/13 08:39:58;;;;;;;10.10;4.65;;;;;;;;;;10501623;28;20104;-84
2023/10/13 08:45:04;;;;;;;7.37;4.33;;;;;;;;;;10501388;28;20036;-84
2023/10/13 08:50:47;;;;;;;7.97;4.25;;;;;;;;;;10497423;28;20038;-84
2023/10/13 08:56:46;;;;;;;8.55;4.63;;;;;;;;;;10512009;28;20032;-84
2023/10/13 09:01:34;;;;;;;13.77;4.95;;;;;;;;;;10481102;28;20028;-84
2023/10/13 09:06:42;;;;;;;7.60;4.27;;;;;;;;;;10493425;28;20387;-85
2023/10/13 09:11:49;;;;;;;9.30;4.30;;;;;;;;;;10508728;28;20036;-85
2023/10/13 09:16:59;;;;;;;10.63;5.28;;;;;;;;;;10491602;28;20033;-85
2023/10/13 09:22:00;;;;;;;10.02;4.90;;;;;;;;;;10491421;28;20032;-85
2023/10/13 09:27:12;;;;;;;11.20;5.55;;;;;;;;;;10491130;28;20100;-85
2023/10/13 09:32:13;;;;;;;9.35;4.50;;;;;;;;;;10511090;28;20059;-84
2023/10/13 09:37:20;;;;;;;16.00;7.93;;;;;;;;;;10540894;28;20055;-85
2023/10/13 09:42:23;;;;;;;11.45;5.55;;;;;;;;;;10491232;28;20032;-85
2023/10/13 09:47:40;;;;;;;11.98;6.22;;;;;;;;;;10504564;28;20036;-85
2023/10/13 09:52:43;;;;;;;10.95;5.30;;;;;;;;;;10492295;28;20060;-85
2023/10/13 09:57:48;;;;;;;11.63;6.00;;;;;;;;;;10505365;28;20044;-85
2023/10/13 10:02:57;;;;;;;12.32;5.43;;;;;;;;;;10491555;28;20052;-85
2023/10/13 10:08:04;;;;;;;11.27;5.22;;;;;;;;;;10487281;28;20090;-85
2023/10/13 10:13:12;;;;;;;13.35;6.15;;;;;;;;;;10494223;28;20028;-85
2023/10/13 10:18:27;;;;;;;12.55;5.38;;;;;;;;;;10502880;28;20136;-82
2023/10/13 10:23:35;;;;;;;11.07;5.25;;;;;;;;;;10512855;28;20119;-82
2023/10/13 10:29:08;;;;;;;12.50;5.40;;;;;;;;;;10509487;28;20036;-82
2023/10/13 10:34:29;;;;;;;10.80;5.72;;;;;;;;;;10520526;28;20037;-82
2023/10/13 10:39:56;;;;;;;12.27;6.00;;;;;;;;;;10535948;28;20031;-82
2023/10/13 10:45:11;;;;;;;13.05;6.20;;;;;;;;;;10505881;28;20516;-83
2023/10/13 10:50:26;;;;;;;13.40;5.60;;;;;;;;;;10514173;28;20048;-82
2023/10/13 10:55:30;;;;;;;10.35;5.63;;;;;;;;;;10508171;28;20494;-83
2023/10/13 11:00:45;;;;;;;12.27;5.88;;;;;;;;;;10502481;28;20032;-83
2023/10/13 11:05:48;;;;;;;13.55;6.22;;;;;;;;;;10519651;28;20032;-82
2023/10/13 11:10:49;;;;;;;10.80;6.28;;;;;;;;;;10498760;28;20056;-82
2023/10/13 11:15:52;;;;;;;11.55;6.15;;;;;;;;;;10499571;28;20037;-82
2023/10/13 11:20:56;;;;;;;13.85;6.13;;;;;;;;;;10516391;28;20033;-82
2023/10/13 11:25:59;;;;;;;10.00;5.75;;;;;;;;;;10517545;28;20119;-81
2023/10/13 11:31:07;;;;;;;11.73;6.05;;;;;;;;;;10501737;28;20037;-82
2023/10/13 11:36:33;;;;;;;12.50;6.63;;;;;;;;;;10497445;28;20083;-82
2023/10/13 11:41:46;;;;;;;12.73;6.47;;;;;;;;;;10517350;28;20032;-83
2023/10/13 11:52:01;;;;;;;12.10;7.20;;;;;;;;;;10521021;28;20040;-83
2023/10/13 11:57:03;;;;;;;12.90;6.47;;;;;;;;;;10501716;28;20036;-83
2023/10/13 12:07:45;;;;;;;13.57;6.80;;;;;;;;;;10392265;28;20034;-81
2023/10/13 12:13:05;;;;;;;16.13;7.13;;;;;;;;;;10550370;23;20060;-86
2023/10/13 12:18:35;;;;;;;16.95;11.70;;;;;;;;;;10508487;28;20039;-86
2023/10/13 12:23:37;;;;;;;14.95;6.53;;;;;;;;;;10475684;28;20037;-86
2023/10/13 13:19:50;;;;;;;13.43;6.07;;;;;;;;;;10540944;28;20032;-84
2023/10/13 13:24:52;;;;;;;13.18;5.70;;;;;;;;;;10536244;28;20047;-84
2023/10/13 13:29:54;;;;;;;14.18;6.22;;;;;;;;;;10538368;28;20067;-83
2023/10/13 13:35:05;;;;;;;17.48;6.05;;;;;;;;;;10534231;28;20051;-84
2023/10/13 13:40:15;;;;;;;18.02;6.05;;;;;;;;;;10536425;28;20024;-83
2023/10/13 13:45:32;;;;;;;16.60;6.28;;;;;;;;;;10537574;28;20063;-83
2023/10/13 13:50:38;;;;;;;21.48;6.05;;;;;;;;;;10541191;28;20031;-82
2023/10/13 13:55:39;;;;;;;21.20;6.35;;;;;;;;;;10537754;28;20033;-84
2023/10/13 14:00:48;;;;;;;16.50;6.25;;;;;;;;;;10540084;28;20025;-86
2023/10/13 14:05:50;;;;;;;19.38;6.20;;;;;;;;;;10542506;28;20032;-84
2023/10/13 14:16:16;;;;;;;13.15;5.65;;;;;;;;;;10577515;28;20032;-84
2023/10/13 14:21:17;;;;;;;14.63;5.50;;;;;;;;;;10554918;28;20040;-84
2023/10/13 14:26:20;;;;;;;15.05;5.93;;;;;;;;;;10554281;28;20036;-85
2023/10/13 14:31:21;;;;;;;14.07;6.47;;;;;;;;;;10553378;28;20404;-86
2023/10/13 14:36:23;;;;;;;17.52;7.05;;;;;;;;;;10570319;28;20035;-86
2023/10/13 14:41:51;;;;;;;16.77;6.95;;;;;;;;;;10553604;28;20044;-87
2023/10/13 14:47:12;;;;;;;12.50;5.55;;;;;;;;;;10530150;28;20028;-85
2023/10/13 14:52:13;;;;;;;13.52;5.25;;;;;;;;;;10562542;28;20095;-84
2023/10/13 14:57:14;;;;;;;15.40;6.03;;;;;;;;;;10552578;28;20067;-86
2023/10/13 15:02:15;;;;;;;13.23;6.20;;;;;;;;;;10562027;28;20039;-85
2023/10/13 15:07:17;;;;;;;16.60;6.20;;;;;;;;;;10576008;28;20126;-82
2023/10/13 15:12:20;;;;;;;11.68;5.35;;;;;;;;;;10546208;28;20047;-83
2023/10/13 15:17:24;;;;;;;12.40;5.35;;;;;;;;;;10539941;28;20095;-84
2023/10/13 15:22:27;;;;;;;14.88;5.95;;;;;;;;;;10537863;28;20036;-84
2023/10/13 15:27:28;;;;;;;11.60;5.38;;;;;;;;;;10538921;28;20058;-84
2023/10/13 15:32:42;;;;;;;14.05;5.43;;;;;;;;;;10535986;28;20028;-84
2023/10/13 15:37:47;;;;;;;16.17;6.43;;;;;;;;;;10535844;28;20386;-84
2023/10/13 15:42:48;;;;;;;17.58;5.75;;;;;;;;;;10560591;28;20031;-82
2023/10/13 15:47:49;;;;;;;12.77;5.68;;;;;;;;;;10534242;28;20060;-83
2023/10/13 15:52:50;;;;;;;12.07;5.15;;;;;;;;;;10530365;28;20051;-83
2023/10/13 15:57:53;;;;;;;10.90;5.47;;;;;;;;;;10532647;28;20030;-83
2023/10/13 16:02:54;;;;;;;13.77;5.32;;;;;;;;;;10533823;28;20032;-84
2023/10/13 16:07:55;;;;;;;13.63;5.22;;;;;;;;;;10549238;28;20032;-83
2023/10/13 16:12:57;;;;;;;13.40;4.93;;;;;;;;;;10550905;28;20028;-85
2023/10/13 16:17:58;;;;;;;15.98;5.50;;;;;;;;;;10532796;28;20112;-85
2023/10/13 16:22:59;;;;;;;15.35;5.65;;;;;;;;;;10531102;28;20064;-85
2023/10/13 16:28:01;;;;;;;13.85;5.15;;;;;;;;;;10527629;28;20563;-84
2023/10/13 16:33:02;;;;;;;11.90;5.30;;;;;;;;;;10530256;28;20050;-84
2023/10/13 16:38:11;;;;;;;11.05;5.05;;;;;;;;;;10546910;28;20054;-86
2023/10/13 16:43:14;;;;;;;11.48;4.85;;;;;;;;;;10544879;28;20028;-87
2023/10/13 16:48:20;;;;;;;9.93;4.90;;;;;;;;;;10550506;28;20036;-86
2023/10/13 16:53:24;;;;;;;13.10;5.25;;;;;;;;;;10533428;28;20469;-86
2023/10/13 16:58:27;;;;;;;10.63;5.15;;;;;;;;;;10531406;28;20083;-86
2023/10/13 17:03:31;;;;;;;11.40;4.85;;;;;;;;;;10535661;28;20516;-86
2023/10/13 17:08:32;;;;;;;12.73;5.28;;;;;;;;;;10536120;28;20559;-85
2023/10/13 17:13:40;;;;;;;11.00;5.00;;;;;;;;;;10537934;28;20174;-87
2023/10/13 17:18:43;;;;;;;11.23;5.22;;;;;;;;;;10560113;28;20139;-86
2023/10/13 17:23:46;;;;;;;11.55;5.38;;;;;;;;;;10524710;28;20048;-86
2023/10/13 17:28:55;;;;;;;11.13;5.38;;;;;;;;;;10488075;28;20032;-86
2023/10/13 17:34:05;;;;;;;11.15;5.05;;;;;;;;;;10510438;28;20052;-86
2023/10/13 17:39:09;;;;;;;12.13;5.10;;;;;;;;;;10496769;28;20035;-86
2023/10/13 17:44:11;;;;;;;11.77;5.20;;;;;;;;;;10486725;28;20063;-85
2023/10/13 17:49:18;;;;;;;10.90;4.90;;;;;;;;;;10489546;28;20032;-85
2023/10/13 17:54:40;;;;;;;13.38;5.20;;;;;;;;;;10508430;28;20049;-85
2023/10/13 18:00:15;;;;;;;11.90;5.50;;;;;;;;;;10339873;28;20030;-86
2023/10/13 18:05:18;;;;;;;12.85;5.20;;;;;;;;;;10454900;28;20033;-85
2023/10/13 18:10:19;;;;;;;12.07;5.97;;;;;;;;;;10496475;28;20036;-89
2023/10/13 18:15:23;;;;;;;8.52;4.90;;;;;;;;;;10528373;28;20037;-89
2023/10/13 18:20:25;;;;;;;12.48;5.30;;;;;;;;;;10546361;28;20029;-88
2023/10/13 18:25:29;;;;;;;15.05;6.13;;;;;;;;;;10566821;28;20067;-89
2023/10/13 18:30:31;;;;;;;10.90;5.78;;;;;;;;;;10572044;28;20035;-87
2023/10/13 18:35:33;;;;;;;11.25;5.90;;;;;;;;;;10553658;28;20052;-89
2023/10/13 18:40:36;;;;;;;14.20;5.75;;;;;;;;;;10543939;28;20036;-88
2023/10/13 18:45:37;;;;;;;12.57;5.63;;;;;;;;;;10561832;28;20108;-88
2023/10/13 18:50:43;;;;;;;12.38;5.60;;;;;;;;;;10572851;28;20028;-87
2023/10/13 18:55:47;;;;;;;8.80;5.20;;;;;;;;;;10578863;28;20066;-84
2023/10/13 19:00:48;;;;;;;12.45;5.72;;;;;;;;;;10568985;28;20441;-88
2023/10/13 19:05:55;;;;;;;12.10;5.63;;;;;;;;;;10540204;28;20052;-87
2023/10/13 19:10:56;;;;;;;13.88;5.93;;;;;;;;;;10578251;28;20020;-82
